createdAt,value
2023-11-08T00:01:07.433Z,101867.94
2023-11-08T00:03:35.544Z,101862.57
2023-11-08T00:06:06.804Z,101862.97
2023-11-08T00:08:41.091Z,101865.71
2023-11-08T00:11:16.285Z,101852.20
2023-11-08T00:13:46.983Z,101854.59
2023-11-08T00:16:15.004Z,101852.93
2023-11-08T00:18:45.749Z,101843.97
2023-11-08T00:21:13.826Z,101845.93
2023-11-08T00:23:42.426Z,101832.09
2023-11-08T00:26:13.484Z,101848.25
2023-11-08T00:28:43.053Z,101847.37
2023-11-08T00:31:11.396Z,101844.52
2023-11-08T00:33:46.336Z,101848.51
2023-11-08T00:36:22.189Z,101847.27
2023-11-08T00:38:58.354Z,101855.84
2023-11-08T00:41:27.155Z,101854.56
2023-11-08T00:44:02.242Z,101855.02
2023-11-08T00:46:30.279Z,101859.47
2023-11-08T00:48:58.241Z,101861.88
2023-11-08T00:51:26.264Z,101864.63
2023-11-08T00:53:54.242Z,101863.39
2023-11-08T00:56:22.402Z,101857.70
2023-11-08T00:58:50.365Z,101860.91
2023-11-08T01:01:18.559Z,101865.35
2023-11-08T01:03:46.694Z,101859.66
2023-11-08T01:06:14.694Z,101859.66
2023-11-08T01:08:44.151Z,101856.46
2023-11-08T01:11:12.188Z,101862.15
2023-11-08T01:13:40.208Z,101865.81
2023-11-08T01:16:08.411Z,101868.66
2023-11-08T01:18:37.238Z,101859.66
2023-11-08T01:21:05.501Z,101860.48
2023-11-08T01:23:33.533Z,101854.76
2023-11-08T01:26:01.575Z,101860.12
2023-11-08T01:28:32.548Z,101859.30
2023-11-08T01:31:00.468Z,101856.46
2023-11-08T01:33:28.546Z,101858.88
2023-11-08T01:35:56.578Z,101857.27
2023-11-08T01:38:24.612Z,101856.03
2023-11-08T01:40:53.924Z,101840.96
2023-11-08T01:43:29.542Z,101849.07
2023-11-08T01:46:29.713Z,101841.32
2023-11-08T01:49:01.394Z,101837.69
2023-11-08T01:51:29.619Z,101842.56
2023-11-08T01:53:58.547Z,101829.91
2023-11-08T01:56:26.935Z,101834.84
2023-11-08T01:58:57.441Z,101834.84
2023-11-08T02:01:25.762Z,101835.70
2023-11-08T02:03:57.117Z,101834.84
2023-11-08T02:06:25.184Z,101833.24
2023-11-08T02:08:53.485Z,101829.58
2023-11-08T02:11:21.493Z,101824.31
2023-11-08T02:13:49.454Z,101815.74
2023-11-08T02:16:17.485Z,101806.07
2023-11-08T02:18:45.452Z,101804.46
2023-11-08T02:21:16.603Z,101810.19
2023-11-08T02:23:44.563Z,101813.46
2023-11-08T02:26:12.516Z,101820.06
2023-11-08T02:28:40.565Z,101818.16
2023-11-08T02:31:08.554Z,101824.31
2023-11-08T02:33:36.792Z,101822.35
2023-11-08T02:36:05.126Z,101817.88
2023-11-08T02:38:33.107Z,101820.36
2023-11-08T02:41:01.057Z,101827.78
2023-11-08T02:43:29.062Z,101825.00
2023-11-08T02:45:56.959Z,101824.61
2023-11-08T02:48:25.017Z,101823.10
2023-11-08T02:50:54.310Z,101826.05
2023-11-08T02:53:22.828Z,101826.47
2023-11-08T02:55:50.824Z,101829.84
2023-11-08T02:58:18.765Z,101830.73
2023-11-08T03:00:47.611Z,101836.48
2023-11-08T03:03:16.017Z,101831.67
2023-11-08T03:05:44.054Z,101838.67
2023-11-08T03:08:12.013Z,101837.52
2023-11-08T03:10:40.534Z,101839.29
2023-11-08T03:13:08.457Z,101836.87
2023-11-08T03:15:36.803Z,101839.78
2023-11-08T03:18:05.929Z,101838.18
2023-11-08T03:20:34.827Z,101837.82
2023-11-08T03:23:02.738Z,101832.55
2023-11-08T03:25:30.706Z,101842.79
2023-11-08T03:27:58.664Z,101838.70
2023-11-08T03:30:26.657Z,101839.06
2023-11-08T03:32:56.782Z,101851.16
2023-11-08T03:35:24.890Z,101839.78
2023-11-08T03:37:52.906Z,101842.20
2023-11-08T03:40:20.799Z,101841.77
2023-11-08T03:42:49.207Z,101844.16
2023-11-08T03:45:17.378Z,101852.34
2023-11-08T03:47:45.381Z,101856.78
2023-11-08T03:50:14.465Z,101856.00
2023-11-08T03:52:42.678Z,101856.72
2023-11-08T03:55:10.842Z,101847.83
2023-11-08T03:57:38.834Z,101853.94
2023-11-08T04:00:07.708Z,101856.00
2023-11-08T04:02:35.593Z,101847.89
2023-11-08T04:05:03.575Z,101849.20
2023-11-08T04:07:31.634Z,101852.47
2023-11-08T04:09:59.550Z,101854.17
2023-11-08T04:12:27.853Z,101849.33
2023-11-08T04:14:55.726Z,101854.30
2023-11-08T04:17:23.638Z,101851.52
2023-11-08T04:19:51.571Z,101860.87
2023-11-08T04:22:20.371Z,101851.09
2023-11-08T04:24:48.542Z,101862.48
2023-11-08T04:27:16.601Z,101856.33
2023-11-08T04:29:44.579Z,101857.57
2023-11-08T04:32:12.474Z,101862.12
2023-11-08T04:34:47.377Z,101862.12
2023-11-08T04:37:16.603Z,101868.30
2023-11-08T04:39:53.933Z,101858.55
2023-11-08T04:42:24.783Z,101862.64
2023-11-08T04:44:52.690Z,101852.96
2023-11-08T04:47:20.966Z,101857.83
2023-11-08T04:49:49.942Z,101865.55
2023-11-08T04:52:23.941Z,101865.26
2023-11-08T04:54:55.374Z,101866.95
2023-11-08T04:57:23.396Z,101870.59
2023-11-08T04:59:52.049Z,101867.67
2023-11-08T05:02:23.769Z,101865.26
2023-11-08T05:04:51.854Z,101870.16
2023-11-08T05:07:22.899Z,101866.07
2023-11-08T05:09:53.150Z,101873.79
2023-11-08T05:12:24.107Z,101871.76
2023-11-08T05:14:52.075Z,101870.52
2023-11-08T05:17:20.648Z,101878.70
2023-11-08T05:19:53.682Z,101874.61
2023-11-08T05:22:21.624Z,101881.90
2023-11-08T05:24:49.721Z,101883.50
2023-11-08T05:27:21.281Z,101875.33
2023-11-08T05:29:49.241Z,101883.73
2023-11-08T05:32:20.507Z,101879.19
2023-11-08T05:34:51.735Z,101872.19
2023-11-08T05:37:20.255Z,101867.22
2023-11-08T05:39:49.215Z,101866.34
2023-11-08T05:42:18.607Z,101866.63
2023-11-08T05:44:49.536Z,101872.25
2023-11-08T05:47:17.613Z,101877.06
2023-11-08T05:50:12.774Z,101872.61
2023-11-08T05:52:40.714Z,101874.97
2023-11-08T05:55:10.192Z,101876.14
2023-11-08T05:57:43.854Z,101877.35
2023-11-08T06:00:12.453Z,101880.30
2023-11-08T06:02:42.886Z,101874.21
2023-11-08T06:05:11.755Z,101887.72
2023-11-08T06:07:43.287Z,101895.44
2023-11-08T06:10:11.757Z,101895.14
2023-11-08T06:12:40.081Z,101894.00
2023-11-08T06:15:09.465Z,101896.38
2023-11-08T06:17:37.538Z,101889.02
2023-11-08T06:20:06.831Z,101896.77
2023-11-08T06:22:35.091Z,101894.42
2023-11-08T06:25:03.467Z,101900.47
2023-11-08T06:27:31.373Z,101894.48
2023-11-08T06:29:59.461Z,101894.85
2023-11-08T06:32:27.422Z,101907.77
2023-11-08T06:34:55.399Z,101911.72
2023-11-08T06:37:23.565Z,101915.68
2023-11-08T06:39:51.625Z,101907.05
2023-11-08T06:42:19.600Z,101910.64
2023-11-08T06:44:47.524Z,101911.79
2023-11-08T06:47:15.773Z,101906.03
2023-11-08T06:49:43.954Z,101906.42
2023-11-08T06:52:11.940Z,101916.85
2023-11-08T06:54:43.537Z,101924.93
2023-11-08T06:57:12.125Z,101919.63
2023-11-08T06:59:40.159Z,101915.88
2023-11-08T07:02:08.796Z,101917.41
2023-11-08T07:04:36.932Z,101916.46
2023-11-08T07:07:05.360Z,101912.38
2023-11-08T07:09:33.906Z,101913.55
2023-11-08T07:12:01.885Z,101911.39
2023-11-08T07:14:30.133Z,101925.55
2023-11-08T07:16:58.223Z,101924.31
2023-11-08T07:19:26.277Z,101928.27
2023-11-08T07:21:54.630Z,101935.40
2023-11-08T07:24:22.629Z,101938.44
2023-11-08T07:26:52.382Z,101944.68
2023-11-08T07:29:20.560Z,101950.77
2023-11-08T07:31:48.470Z,101953.52
2023-11-08T07:34:16.495Z,101946.05
2023-11-08T07:36:45.041Z,101945.96
2023-11-08T07:39:26.876Z,101942.59
2023-11-08T07:41:55.957Z,101949.62
2023-11-08T07:44:23.890Z,101951.68
2023-11-08T07:46:51.992Z,101946.32
2023-11-08T07:49:20.075Z,101955.70
2023-11-08T07:51:48.094Z,101945.08
2023-11-08T07:54:16.011Z,101945.83
2023-11-08T07:56:44.048Z,101937.42
2023-11-08T07:59:12.431Z,101937.59
2023-11-08T08:01:40.561Z,101941.09
2023-11-08T08:04:08.758Z,101939.74
2023-11-08T08:06:36.856Z,101940.37
2023-11-08T08:09:05.079Z,101945.08
2023-11-08T08:11:34.713Z,101938.05
2023-11-08T08:14:02.581Z,101938.83
2023-11-08T08:16:30.489Z,101940.01
2023-11-08T08:19:00.486Z,101943.99
2023-11-08T08:21:29.353Z,101932.13
2023-11-08T08:24:04.834Z,101953.25
2023-11-08T08:26:36.217Z,101947.89
2023-11-08T08:29:04.497Z,101950.14
2023-11-08T08:31:32.435Z,101956.55
2023-11-08T08:34:00.486Z,101955.18
2023-11-08T08:36:30.964Z,101962.41
2023-11-08T08:38:59.396Z,101949.98
2023-11-08T08:41:27.348Z,101947.04
2023-11-08T08:43:57.430Z,101951.06
2023-11-08T08:46:25.527Z,101955.51
2023-11-08T08:48:53.741Z,101950.47
2023-11-08T08:51:21.913Z,101953.67
2023-11-08T08:53:49.904Z,101951.23
2023-11-08T08:56:17.877Z,101950.66
2023-11-08T08:58:46.048Z,101959.92
2023-11-08T09:01:14.813Z,101952.40
2023-11-08T09:03:42.834Z,101955.51
2023-11-08T09:06:11.827Z,101963.98
2023-11-08T09:08:39.759Z,101957.83
2023-11-08T09:11:07.771Z,101954.16
2023-11-08T09:13:35.769Z,101958.52
2023-11-08T09:16:05.559Z,101961.59
2023-11-08T09:18:33.567Z,101954.10
2023-11-08T09:21:02.059Z,101953.19
2023-11-08T09:23:30.827Z,101952.95
2023-11-08T09:25:59.322Z,101951.23
2023-11-08T09:28:28.445Z,101965.41
2023-11-08T09:30:57.557Z,101963.26
2023-11-08T09:33:25.720Z,101956.29
2023-11-08T09:35:54.363Z,101961.42
2023-11-08T09:38:22.548Z,101968.52
2023-11-08T09:40:50.626Z,101963.16
2023-11-08T09:43:26.660Z,101960.28
2023-11-08T09:45:56.964Z,101959.27
2023-11-08T09:48:24.995Z,101962.34
2023-11-08T09:50:54.126Z,101975.62
2023-11-08T09:53:22.333Z,101968.16
2023-11-08T09:55:51.574Z,101969.99
2023-11-08T09:58:19.950Z,101971.82
2023-11-08T10:00:49.236Z,101967.93
2023-11-08T10:03:18.925Z,101956.36
2023-11-08T10:05:49.492Z,101961.16
2023-11-08T10:08:17.570Z,101953.25
2023-11-08T10:10:47.506Z,101954.76
2023-11-08T10:13:16.075Z,101947.63
2023-11-08T10:15:44.364Z,101949.91
2023-11-08T10:19:33.309Z,101941.91
2023-11-08T10:21:18.491Z,101947.49
2023-11-08T10:23:46.732Z,101930.98
2023-11-08T10:26:25.748Z,101936.90
2023-11-08T10:29:04.519Z,101935.85
2023-11-08T10:31:43.437Z,101923.33
2023-11-08T10:34:18.393Z,101924.93
2023-11-08T10:36:46.390Z,101915.77
2023-11-08T10:39:18.612Z,101917.25
2023-11-08T10:41:48.059Z,101912.18
2023-11-08T10:44:17.979Z,101908.74
2023-11-08T10:46:45.903Z,101913.06
2023-11-08T10:49:14.017Z,101913.72
2023-11-08T10:51:43.521Z,101913.09
2023-11-08T10:54:11.994Z,101905.84
2023-11-08T10:56:40.437Z,101898.58
2023-11-08T10:59:12.024Z,101888.30
2023-11-08T11:01:43.868Z,101890.59
2023-11-08T11:04:13.693Z,101892.04
2023-11-08T11:06:42.914Z,101886.97
2023-11-08T11:09:15.670Z,101892.43
2023-11-08T11:11:54.927Z,101891.48
2023-11-08T11:14:55.128Z,101885.37
2023-11-08T11:17:33.047Z,101872.77
2023-11-08T11:20:08.325Z,101876.44
2023-11-08T11:22:37.138Z,101873.79
2023-11-08T11:25:06.303Z,101865.98
2023-11-08T11:27:43.355Z,101861.27
2023-11-08T11:30:17.383Z,101859.86
2023-11-08T11:32:49.100Z,101854.63
2023-11-08T11:35:21.172Z,101851.26
2023-11-08T11:38:20.513Z,101848.58
2023-11-08T11:41:08.663Z,101859.07
2023-11-08T11:43:40.639Z,101848.74
2023-11-08T11:46:08.720Z,101844.45
2023-11-08T11:48:38.177Z,101842.82
2023-11-08T11:51:06.493Z,101840.63
2023-11-08T11:53:34.663Z,101831.38
2023-11-08T11:56:09.919Z,101836.64
2023-11-08T11:58:38.183Z,101839.81
2023-11-08T12:01:08.482Z,101839.36
2023-11-08T12:03:38.467Z,101827.06
2023-11-08T12:06:07.350Z,101816.11
2023-11-08T12:08:35.893Z,101813.72
2023-11-08T12:11:18.528Z,101801.29
2023-11-08T12:13:51.665Z,101798.61
2023-11-08T12:16:21.229Z,101801.78
2023-11-08T12:18:51.781Z,101797.01
2023-11-08T12:21:20.786Z,101810.05
2023-11-08T12:23:51.613Z,101800.51
2023-11-08T12:26:20.567Z,101795.41
2023-11-08T12:28:48.988Z,101785.83
2023-11-08T12:31:22.974Z,101776.77
2023-11-08T12:33:51.788Z,101781.21
2023-11-08T12:36:19.991Z,101781.38
2023-11-08T12:38:48.379Z,101782.03
2023-11-08T12:41:17.184Z,101783.96
2023-11-08T12:44:02.552Z,101780.76
2023-11-08T12:46:40.861Z,101774.55
2023-11-08T12:49:18.724Z,101769.90
2023-11-08T12:51:48.065Z,101760.19
2023-11-08T12:54:17.040Z,101770.88
2023-11-08T12:56:46.100Z,101765.78
2023-11-08T12:59:21.986Z,101769.77
2023-11-08T13:01:52.307Z,101766.23
2023-11-08T13:04:21.592Z,101765.29
2023-11-08T13:06:50.401Z,101758.29
2023-11-08T13:09:18.515Z,101753.32
2023-11-08T13:11:47.350Z,101746.00
2023-11-08T13:14:16.571Z,101751.72
2023-11-08T13:16:44.551Z,101743.12
2023-11-08T13:19:12.660Z,101738.97
2023-11-08T13:21:40.605Z,101742.98
2023-11-08T13:24:09.345Z,101738.97
2023-11-08T13:26:37.812Z,101739.62
2023-11-08T13:29:06.138Z,101734.52
2023-11-08T13:31:34.361Z,101730.73
2023-11-08T13:34:02.380Z,101721.47
2023-11-08T13:36:30.473Z,101715.09
2023-11-08T13:38:59.355Z,101714.48
2023-11-08T13:41:27.684Z,101704.73
2023-11-08T13:43:55.691Z,101693.25
2023-11-08T13:46:25.376Z,101696.95
2023-11-08T13:48:53.419Z,101696.45
2023-11-08T13:51:21.783Z,101685.96
2023-11-08T13:53:49.730Z,101677.66
2023-11-08T13:56:17.735Z,101676.67
2023-11-08T13:58:49.246Z,101670.16
2023-11-08T14:01:18.730Z,101671.77
2023-11-08T14:03:47.240Z,101672.72
2023-11-08T14:06:15.218Z,101671.44
2023-11-08T14:08:43.341Z,101663.63
2023-11-08T14:11:12.997Z,101665.23
2023-11-08T14:13:41.941Z,101663.63
2023-11-08T14:16:10.203Z,101666.17
2023-11-08T14:18:38.246Z,101664.90
2023-11-08T14:21:06.444Z,101658.85
2023-11-08T14:23:34.363Z,101652.96
2023-11-08T14:26:02.447Z,101650.71
2023-11-08T14:28:30.466Z,101649.95
2023-11-08T14:30:58.493Z,101642.63
2023-11-08T14:33:27.079Z,101646.75
2023-11-08T14:35:55.185Z,101646.10
2023-11-08T14:38:23.298Z,101646.91
2023-11-08T14:40:52.375Z,101653.42
2023-11-08T14:43:24.603Z,101648.98
2023-11-08T14:45:53.444Z,101640.05
2023-11-08T14:48:21.876Z,101637.66
2023-11-08T14:50:50.431Z,101635.27
2023-11-08T14:53:18.459Z,101622.85
2023-11-08T14:55:49.447Z,101627.95
2023-11-08T14:58:17.439Z,101627.66
2023-11-08T15:00:47.136Z,101631.13
2023-11-08T15:03:15.155Z,101624.29
2023-11-08T15:05:43.247Z,101619.35
2023-11-08T15:09:49.079Z,101623.50
2023-11-08T15:10:59.511Z,101619.05
2023-11-08T15:13:27.772Z,101621.12
2023-11-08T15:15:55.713Z,101609.31
2023-11-08T15:18:27.128Z,101611.86
2023-11-08T15:20:55.114Z,101607.88
2023-11-08T15:23:23.287Z,101609.64
2023-11-08T15:25:51.194Z,101605.68
2023-11-08T15:28:19.254Z,101601.01
2023-11-08T15:30:47.480Z,101597.84
2023-11-08T15:33:15.490Z,101595.61
2023-11-08T15:35:43.653Z,101595.77
2023-11-08T15:38:11.951Z,101587.95
2023-11-08T15:40:39.991Z,101593.02
2023-11-08T15:43:08.532Z,101591.72
2023-11-08T15:45:37.114Z,101587.89
2023-11-08T15:48:05.854Z,101590.90
2023-11-08T15:50:34.027Z,101582.46
2023-11-08T15:53:01.977Z,101584.69
2023-11-08T15:55:30.001Z,101588.16
2023-11-08T15:57:58.477Z,101592.93
2023-11-08T16:00:26.534Z,101589.07
2023-11-08T16:02:54.851Z,101587.59
2023-11-08T16:05:22.815Z,101594.43
2023-11-08T16:07:52.088Z,101592.96
2023-11-08T16:10:20.466Z,101599.80
2023-11-08T16:12:48.469Z,101606.11
2023-11-08T16:15:16.477Z,101603.06
2023-11-08T16:17:44.409Z,101593.94
2023-11-08T16:20:13.232Z,101594.10
2023-11-08T16:22:42.033Z,101595.19
2023-11-08T16:25:10.622Z,101592.93
2023-11-08T16:27:38.649Z,101587.47
2023-11-08T16:30:09.840Z,101595.84
2023-11-08T16:32:43.052Z,101594.07
2023-11-08T16:35:15.397Z,101586.55
2023-11-08T16:37:43.453Z,101587.63
2023-11-08T16:40:13.145Z,101584.88
2023-11-08T16:42:41.362Z,101580.24
2023-11-08T16:45:09.902Z,101577.85
2023-11-08T16:47:38.008Z,101573.50
2023-11-08T16:50:06.779Z,101579.36
2023-11-08T16:52:34.724Z,101573.44
2023-11-08T16:55:02.761Z,101574.95
2023-11-08T16:57:32.230Z,101572.69
2023-11-08T17:00:00.254Z,101567.09
2023-11-08T17:02:31.189Z,101571.48
2023-11-08T17:04:59.823Z,101570.01
2023-11-08T17:07:28.038Z,101567.75
2023-11-08T17:09:55.994Z,101573.11
2023-11-08T17:12:24.144Z,101572.06
2023-11-08T17:14:52.696Z,101571.09
2023-11-08T17:17:20.844Z,101573.24
2023-11-08T17:19:49.933Z,101569.71
2023-11-08T17:22:18.083Z,101573.11
2023-11-08T17:24:48.339Z,101570.40
2023-11-08T17:27:16.921Z,101568.47
2023-11-08T17:29:45.915Z,101563.34
2023-11-08T17:32:13.866Z,101562.98
2023-11-08T17:34:42.005Z,101564.34
2023-11-08T17:37:10.186Z,101565.27
2023-11-08T17:39:38.170Z,101554.90
2023-11-08T17:42:06.495Z,101556.59
2023-11-08T17:44:34.500Z,101566.08
2023-11-08T17:47:02.493Z,101558.46
2023-11-08T17:49:30.849Z,101559.25
2023-11-08T17:51:58.870Z,101559.48
2023-11-08T17:54:26.872Z,101567.23
2023-11-08T17:56:54.897Z,101564.80
2023-11-08T17:59:23.456Z,101559.70
2023-11-08T18:01:51.411Z,101565.85
2023-11-08T18:04:19.474Z,101560.62
2023-11-08T18:06:47.537Z,101562.32
2023-11-08T18:09:16.919Z,101561.99
2023-11-08T18:11:45.577Z,101552.97
2023-11-08T18:14:13.606Z,101561.50
2023-11-08T18:16:41.605Z,101550.22
2023-11-08T18:19:09.864Z,101547.51
2023-11-08T18:21:37.863Z,101551.13
2023-11-08T18:24:06.304Z,101547.93
2023-11-08T18:26:34.227Z,101539.82
2023-11-08T18:29:02.221Z,101542.34
2023-11-08T18:31:30.328Z,101529.36
2023-11-08T18:33:58.517Z,101533.80
2023-11-08T18:36:28.062Z,101537.99
2023-11-08T18:38:56.642Z,101534.49
2023-11-08T18:41:25.287Z,101530.93
2023-11-08T18:43:54.711Z,101524.87
2023-11-08T18:46:23.033Z,101529.20
2023-11-08T18:48:51.132Z,101527.59
2023-11-08T18:51:19.965Z,101519.05
2023-11-08T18:53:48.014Z,101513.83
2023-11-08T18:56:16.136Z,101510.98
2023-11-08T18:58:44.200Z,101513.01
2023-11-08T19:01:12.590Z,101511.99
2023-11-08T19:03:40.712Z,101507.52
2023-11-08T19:06:09.137Z,101499.90
2023-11-08T19:08:37.436Z,101493.84
2023-11-08T19:11:10.368Z,101504.57
2023-11-08T19:13:39.555Z,101500.09
2023-11-08T19:16:10.580Z,101496.56
2023-11-08T19:18:39.746Z,101486.88
2023-11-08T19:21:08.413Z,101486.88
2023-11-08T19:23:36.405Z,101488.58
2023-11-08T19:26:04.438Z,101484.27
2023-11-08T19:28:32.563Z,101484.69
2023-11-08T19:31:01.099Z,101476.58
2023-11-08T19:33:29.549Z,101465.56
2023-11-08T19:36:00.459Z,101470.47
2023-11-08T19:38:29.561Z,101464.88
2023-11-08T19:40:57.529Z,101469.55
2023-11-08T19:43:26.894Z,101461.87
2023-11-08T19:45:54.943Z,101465.20
2023-11-08T19:48:22.974Z,101467.23
2023-11-08T19:50:51.141Z,101456.86
2023-11-08T19:53:19.238Z,101460.72
2023-11-08T19:55:47.255Z,101454.21
2023-11-08T19:58:17.024Z,101447.74
2023-11-08T20:00:45.124Z,101443.62
2023-11-08T20:03:13.144Z,101447.64
2023-11-08T20:05:43.076Z,101445.55
2023-11-08T20:08:11.141Z,101438.16
2023-11-08T20:10:42.709Z,101433.74
2023-11-08T20:13:12.558Z,101433.48
2023-11-08T20:15:40.674Z,101429.69
2023-11-08T20:18:08.689Z,101438.09
2023-11-08T20:20:36.587Z,101439.17
2023-11-08T20:23:04.772Z,101438.23
2023-11-08T20:25:33.054Z,101435.94
2023-11-08T20:28:01.178Z,101425.44
2023-11-08T20:30:31.804Z,101421.05
2023-11-08T20:32:59.931Z,101425.86
2023-11-08T20:35:28.001Z,101418.63
2023-11-08T20:37:56.151Z,101415.46
2023-11-08T20:40:24.393Z,101412.42
2023-11-08T20:42:53.125Z,101407.19
2023-11-08T20:45:22.247Z,101409.25
2023-11-08T20:47:50.355Z,101408.37
2023-11-08T20:50:18.505Z,101407.35
2023-11-08T20:52:49.529Z,101405.30
2023-11-08T20:55:17.861Z,101403.17
2023-11-08T20:57:48.396Z,101395.38
2023-11-08T21:00:17.952Z,101392.54
2023-11-08T21:02:45.941Z,101391.30
2023-11-08T21:05:17.240Z,101387.31
2023-11-08T21:07:51.508Z,101385.34
2023-11-08T21:10:23.728Z,101382.99
2023-11-08T21:12:52.033Z,101379.92
2023-11-08T21:15:20.273Z,101375.11
2023-11-08T21:17:55.457Z,101371.22
2023-11-08T21:20:25.435Z,101368.24
2023-11-08T21:22:53.450Z,101372.85
2023-11-08T21:25:21.913Z,101378.31
2023-11-08T21:28:00.315Z,101378.58
2023-11-08T21:30:32.586Z,101384.50
2023-11-08T21:33:00.686Z,101374.72
2023-11-08T21:35:31.626Z,101370.63
2023-11-08T21:38:00.558Z,101357.84
2023-11-08T21:40:28.715Z,101351.90
2023-11-08T21:42:56.968Z,101356.05
2023-11-08T21:45:25.029Z,101356.70
2023-11-08T21:47:53.768Z,101358.92
2023-11-08T21:50:21.849Z,101355.49
2023-11-08T21:52:49.805Z,101350.78
2023-11-08T21:55:19.187Z,101345.55
2023-11-08T21:57:47.642Z,101344.93
2023-11-08T22:00:17.674Z,101338.36
2023-11-08T22:02:45.731Z,101337.48
2023-11-08T22:05:13.704Z,101336.91
2023-11-08T22:07:41.715Z,101330.38
2023-11-08T22:10:12.092Z,101322.20
2023-11-08T22:12:40.709Z,101328.74
2023-11-08T22:15:09.231Z,101330.80
2023-11-08T22:17:37.422Z,101321.84
2023-11-08T22:20:07.139Z,101331.16
2023-11-08T22:22:35.244Z,101321.48
2023-11-08T22:25:03.264Z,101312.42
2023-11-08T22:27:31.247Z,101313.67
2023-11-08T22:29:59.172Z,101315.89
2023-11-08T22:32:27.105Z,101319.98
2023-11-08T22:34:55.022Z,101313.24
2023-11-08T22:37:23.920Z,101323.84
2023-11-08T22:39:51.956Z,101327.77
2023-11-08T22:42:19.969Z,101326.23
2023-11-08T22:44:49.439Z,101322.59
2023-11-08T22:47:17.483Z,101331.00
2023-11-08T22:49:46.621Z,101332.44
2023-11-08T22:52:14.604Z,101331.78
2023-11-08T22:54:42.770Z,101327.83
2023-11-08T22:57:11.013Z,101321.68
2023-11-08T22:59:38.920Z,101325.18
2023-11-08T23:02:06.802Z,101328.65
2023-11-08T23:04:34.747Z,101324.79
2023-11-08T23:07:02.913Z,101325.24
2023-11-08T23:09:30.834Z,101325.34
2023-11-08T23:11:58.896Z,101331.98
2023-11-08T23:14:26.846Z,101322.73
2023-11-08T23:16:54.889Z,101317.16
2023-11-08T23:19:22.984Z,101314.06
2023-11-08T23:21:50.990Z,101315.99
2023-11-08T23:24:21.464Z,101319.00
2023-11-08T23:26:49.713Z,101313.05
2023-11-08T23:29:17.747Z,101320.99
2023-11-08T23:31:45.766Z,101325.96
2023-11-08T23:34:13.767Z,101330.84
2023-11-08T23:36:42.356Z,101313.02
2023-11-08T23:39:11.403Z,101314.62
2023-11-08T23:41:40.163Z,101324.79
2023-11-08T23:44:10.508Z,101314.75
2023-11-08T23:46:38.467Z,101302.71
2023-11-08T23:49:06.495Z,101300.23
2023-11-08T23:51:37.127Z,101299.25
2023-11-08T23:54:05.732Z,101300.42
2023-11-08T23:56:33.663Z,101302.75
2023-11-08T23:59:01.843Z,101297.68
